sensor_id;sensor_type;location;lat;lon;timestamp;P1;durP1;ratioP1;P2;durP2;ratioP2
15679;SDS011;15488;48.114;11.532;2022-12-18T00:00:56;20.40;;;8.70;;
15679;SDS011;15488;48.114;11.532;2022-12-18T00:03:23;22.27;;;9.80;;
15679;SDS011;15488;48.114;11.532;2022-12-18T00:05:53;22.40;;;9.67;;
15679;SDS011;15488;48.114;11.532;2022-12-18T00:08:21;22.10;;;9.07;;
15679;SDS011;15488;48.114;11.532;2022-12-18T00:10:48;21.43;;;8.83;;
15679;SDS011;15488;48.114;11.532;2022-12-18T00:13:16;23.97;;;9.97;;
15679;SDS011;15488;48.114;11.532;2022-12-18T00:15:43;22.90;;;8.73;;
15679;SDS011;15488;48.114;11.532;2022-12-18T00:18:10;18.67;;;8.33;;
15679;SDS011;15488;48.114;11.532;2022-12-18T00:20:38;26.20;;;10.93;;
15679;SDS011;15488;48.114;11.532;2022-12-18T00:23:07;26.20;;;10.97;;
15679;SDS011;15488;48.114;11.532;2022-12-18T00:25:35;26.80;;;10.57;;
15679;SDS011;15488;48.114;11.532;2022-12-18T00:28:03;23.60;;;9.27;;
15679;SDS011;15488;48.114;11.532;2022-12-18T00:30:31;22.33;;;9.63;;
15679;SDS011;15488;48.114;11.532;2022-12-18T00:32:58;20.87;;;8.60;;
15679;SDS011;15488;48.114;11.532;2022-12-18T00:35:25;22.23;;;9.30;;
15679;SDS011;15488;48.114;11.532;2022-12-18T00:37:53;20.20;;;8.93;;
15679;SDS011;15488;48.114;11.532;2022-12-18T00:40:22;20.93;;;9.37;;
15679;SDS011;15488;48.114;11.532;2022-12-18T00:42:49;20.60;;;10.10;;
15679;SDS011;15488;48.114;11.532;2022-12-18T00:45:24;24.03;;;10.13;;
15679;SDS011;15488;48.114;11.532;2022-12-18T00:47:53;20.23;;;9.67;;
15679;SDS011;15488;48.114;11.532;2022-12-18T00:50:21;23.10;;;10.53;;
15679;SDS011;15488;48.114;11.532;2022-12-18T00:52:49;19.33;;;9.07;;
15679;SDS011;15488;48.114;11.532;2022-12-18T00:55:16;20.13;;;9.37;;
15679;SDS011;15488;48.114;11.532;2022-12-18T00:57:45;19.93;;;8.77;;
15679;SDS011;15488;48.114;11.532;2022-12-18T01:00:14;19.70;;;9.07;;
15679;SDS011;15488;48.114;11.532;2022-12-18T01:02:42;18.43;;;8.67;;
15679;SDS011;15488;48.114;11.532;2022-12-18T01:05:10;22.13;;;9.10;;
15679;SDS011;15488;48.114;11.532;2022-12-18T01:07:38;22.07;;;9.37;;
15679;SDS011;15488;48.114;11.532;2022-12-18T01:10:07;20.20;;;9.33;;
15679;SDS011;15488;48.114;11.532;2022-12-18T01:12:37;22.73;;;8.93;;
15679;SDS011;15488;48.114;11.532;2022-12-18T01:15:06;18.53;;;9.17;;
15679;SDS011;15488;48.114;11.532;2022-12-18T01:17:36;19.87;;;9.23;;
15679;SDS011;15488;48.114;11.532;2022-12-18T01:20:04;17.53;;;8.53;;
15679;SDS011;15488;48.114;11.532;2022-12-18T01:22:34;18.20;;;8.30;;
15679;SDS011;15488;48.114;11.532;2022-12-18T01:25:03;20.77;;;8.50;;
15679;SDS011;15488;48.114;11.532;2022-12-18T01:27:32;17.83;;;8.60;;
15679;SDS011;15488;48.114;11.532;2022-12-18T01:30:00;19.47;;;8.53;;
15679;SDS011;15488;48.114;11.532;2022-12-18T01:32:30;17.77;;;8.23;;
15679;SDS011;15488;48.114;11.532;2022-12-18T01:34:58;19.00;;;8.50;;
15679;SDS011;15488;48.114;11.532;2022-12-18T01:37:25;16.70;;;7.93;;
15679;SDS011;15488;48.114;11.532;2022-12-18T01:39:53;16.57;;;8.30;;
15679;SDS011;15488;48.114;11.532;2022-12-18T01:42:21;21.53;;;9.07;;
15679;SDS011;15488;48.114;11.532;2022-12-18T01:44:53;17.87;;;8.47;;
15679;SDS011;15488;48.114;11.532;2022-12-18T01:47:27;18.40;;;8.67;;
15679;SDS011;15488;48.114;11.532;2022-12-18T01:50:00;21.23;;;8.50;;
15679;SDS011;15488;48.114;11.532;2022-12-18T01:52:31;20.73;;;8.57;;
15679;SDS011;15488;48.114;11.532;2022-12-18T01:54:59;18.13;;;8.57;;
15679;SDS011;15488;48.114;11.532;2022-12-18T01:57:29;18.23;;;8.57;;
15679;SDS011;15488;48.114;11.532;2022-12-18T01:59:57;18.00;;;8.20;;
15679;SDS011;15488;48.114;11.532;2022-12-18T02:02:27;19.20;;;8.80;;
15679;SDS011;15488;48.114;11.532;2022-12-18T02:04:57;19.57;;;8.50;;
15679;SDS011;15488;48.114;11.532;2022-12-18T02:07:27;19.70;;;9.60;;
15679;SDS011;15488;48.114;11.532;2022-12-18T02:10:02;20.47;;;8.87;;
15679;SDS011;15488;48.114;11.532;2022-12-18T02:12:35;21.30;;;9.43;;
15679;SDS011;15488;48.114;11.532;2022-12-18T02:15:13;22.30;;;9.03;;
15679;SDS011;15488;48.114;11.532;2022-12-18T02:17:44;21.77;;;9.43;;
15679;SDS011;15488;48.114;11.532;2022-12-18T02:20:21;21.67;;;9.40;;
15679;SDS011;15488;48.114;11.532;2022-12-18T02:22:59;24.10;;;9.33;;
15679;SDS011;15488;48.114;11.532;2022-12-18T02:25:40;23.27;;;9.70;;
15679;SDS011;15488;48.114;11.532;2022-12-18T02:28:30;20.93;;;9.43;;
15679;SDS011;15488;48.114;11.532;2022-12-18T02:31:00;22.50;;;10.27;;
15679;SDS011;15488;48.114;11.532;2022-12-18T02:33:30;25.43;;;10.07;;
15679;SDS011;15488;48.114;11.532;2022-12-18T02:35:59;24.07;;;10.53;;
15679;SDS011;15488;48.114;11.532;2022-12-18T02:38:27;25.27;;;10.20;;
15679;SDS011;15488;48.114;11.532;2022-12-18T02:40:56;26.13;;;9.83;;
15679;SDS011;15488;48.114;11.532;2022-12-18T02:43:25;23.50;;;10.23;;
15679;SDS011;15488;48.114;11.532;2022-12-18T02:45:53;22.70;;;10.03;;
15679;SDS011;15488;48.114;11.532;2022-12-18T02:48:23;23.93;;;10.10;;
15679;SDS011;15488;48.114;11.532;2022-12-18T02:50:55;24.27;;;10.40;;
15679;SDS011;15488;48.114;11.532;2022-12-18T02:53:30;28.60;;;10.47;;
15679;SDS011;15488;48.114;11.532;2022-12-18T02:56:05;24.17;;;10.27;;
15679;SDS011;15488;48.114;11.532;2022-12-18T02:58:41;26.13;;;11.13;;
15679;SDS011;15488;48.114;11.532;2022-12-18T03:01:15;25.57;;;10.80;;
15679;SDS011;15488;48.114;11.532;2022-12-18T03:03:49;26.60;;;11.23;;
15679;SDS011;15488;48.114;11.532;2022-12-18T03:06:23;23.23;;;10.17;;
15679;SDS011;15488;48.114;11.532;2022-12-18T03:08:54;23.77;;;10.40;;
15679;SDS011;15488;48.114;11.532;2022-12-18T03:11:25;24.10;;;10.00;;
15679;SDS011;15488;48.114;11.532;2022-12-18T03:14:18;23.53;;;10.63;;
15679;SDS011;15488;48.114;11.532;2022-12-18T03:16:50;25.93;;;10.70;;
15679;SDS011;15488;48.114;11.532;2022-12-18T03:19:24;26.43;;;11.10;;
15679;SDS011;15488;48.114;11.532;2022-12-18T03:21:55;28.53;;;10.97;;
15679;SDS011;15488;48.114;11.532;2022-12-18T03:24:25;25.93;;;10.23;;
15679;SDS011;15488;48.114;11.532;2022-12-18T03:26:57;23.77;;;10.10;;
15679;SDS011;15488;48.114;11.532;2022-12-18T03:29:30;21.30;;;9.77;;
15679;SDS011;15488;48.114;11.532;2022-12-18T03:32:03;27.60;;;10.93;;
15679;SDS011;15488;48.114;11.532;2022-12-18T03:34:34;23.67;;;10.00;;
15679;SDS011;15488;48.114;11.532;2022-12-18T03:37:04;24.03;;;10.60;;
15679;SDS011;15488;48.114;11.532;2022-12-18T03:39:32;23.30;;;10.23;;
15679;SDS011;15488;48.114;11.532;2022-12-18T03:42:01;23.73;;;9.53;;
15679;SDS011;15488;48.114;11.532;2022-12-18T03:44:35;21.53;;;9.63;;
15679;SDS011;15488;48.114;11.532;2022-12-18T03:47:07;24.50;;;10.20;;
15679;SDS011;15488;48.114;11.532;2022-12-18T03:49:40;20.93;;;10.07;;
15679;SDS011;15488;48.114;11.532;2022-12-18T03:52:13;24.03;;;10.57;;
15679;SDS011;15488;48.114;11.532;2022-12-18T03:54:47;22.60;;;10.03;;
15679;SDS011;15488;48.114;11.532;2022-12-18T03:57:16;23.07;;;10.30;;
15679;SDS011;15488;48.114;11.532;2022-12-18T03:59:47;24.33;;;10.53;;
15679;SDS011;15488;48.114;11.532;2022-12-18T04:02:17;24.67;;;9.97;;
15679;SDS011;15488;48.114;11.532;2022-12-18T04:04:47;25.10;;;10.37;;
15679;SDS011;15488;48.114;11.532;2022-12-18T04:07:16;25.13;;;10.47;;
15679;SDS011;15488;48.114;11.532;2022-12-18T04:09:44;26.27;;;10.60;;
15679;SDS011;15488;48.114;11.532;2022-12-18T04:12:14;29.67;;;11.27;;
15679;SDS011;15488;48.114;11.532;2022-12-18T04:14:41;26.50;;;10.73;;
15679;SDS011;15488;48.114;11.532;2022-12-18T04:17:10;25.03;;;11.13;;
15679;SDS011;15488;48.114;11.532;2022-12-18T04:19:38;25.10;;;10.17;;
15679;SDS011;15488;48.114;11.532;2022-12-18T04:22:05;24.80;;;10.57;;
15679;SDS011;15488;48.114;11.532;2022-12-18T04:24:33;23.83;;;9.57;;
15679;SDS011;15488;48.114;11.532;2022-12-18T04:27:00;25.20;;;10.77;;
15679;SDS011;15488;48.114;11.532;2022-12-18T04:29:27;26.27;;;11.13;;
15679;SDS011;15488;48.114;11.532;2022-12-18T04:31:55;22.30;;;9.90;;
15679;SDS011;15488;48.114;11.532;2022-12-18T04:34:24;26.20;;;10.53;;
15679;SDS011;15488;48.114;11.532;2022-12-18T04:36:51;25.40;;;10.63;;
15679;SDS011;15488;48.114;11.532;2022-12-18T04:39:19;25.27;;;10.70;;
15679;SDS011;15488;48.114;11.532;2022-12-18T04:41:46;28.07;;;10.80;;
15679;SDS011;15488;48.114;11.532;2022-12-18T04:44:14;23.33;;;10.60;;
15679;SDS011;15488;48.114;11.532;2022-12-18T04:46:41;26.10;;;10.90;;
15679;SDS011;15488;48.114;11.532;2022-12-18T04:49:08;26.23;;;10.60;;
15679;SDS011;15488;48.114;11.532;2022-12-18T04:51:37;27.13;;;10.53;;
15679;SDS011;15488;48.114;11.532;2022-12-18T04:54:05;25.50;;;10.70;;
15679;SDS011;15488;48.114;11.532;2022-12-18T04:56:32;25.10;;;10.63;;
15679;SDS011;15488;48.114;11.532;2022-12-18T04:59:00;24.77;;;10.40;;
15679;SDS011;15488;48.114;11.532;2022-12-18T05:01:27;23.83;;;10.07;;
15679;SDS011;15488;48.114;11.532;2022-12-18T05:03:55;21.90;;;9.70;;
15679;SDS011;15488;48.114;11.532;2022-12-18T05:06:22;24.97;;;10.27;;
15679;SDS011;15488;48.114;11.532;2022-12-18T05:08:51;24.30;;;10.37;;
15679;SDS011;15488;48.114;11.532;2022-12-18T05:11:18;25.57;;;10.33;;
15679;SDS011;15488;48.114;11.532;2022-12-18T05:13:46;24.57;;;10.30;;
15679;SDS011;15488;48.114;11.532;2022-12-18T05:16:13;21.90;;;9.13;;
15679;SDS011;15488;48.114;11.532;2022-12-18T05:18:41;21.70;;;9.90;;
15679;SDS011;15488;48.114;11.532;2022-12-18T05:21:09;24.07;;;10.47;;
15679;SDS011;15488;48.114;11.532;2022-12-18T05:23:36;19.70;;;9.27;;
15679;SDS011;15488;48.114;11.532;2022-12-18T05:26:06;23.80;;;10.00;;
15679;SDS011;15488;48.114;11.532;2022-12-18T05:28:35;24.33;;;10.30;;
15679;SDS011;15488;48.114;11.532;2022-12-18T05:31:03;23.67;;;10.33;;
15679;SDS011;15488;48.114;11.532;2022-12-18T05:33:31;20.10;;;9.73;;
15679;SDS011;15488;48.114;11.532;2022-12-18T05:36:00;20.10;;;9.50;;
15679;SDS011;15488;48.114;11.532;2022-12-18T05:38:30;23.50;;;10.33;;
15679;SDS011;15488;48.114;11.532;2022-12-18T05:40:59;20.77;;;9.63;;
15679;SDS011;15488;48.114;11.532;2022-12-18T05:43:28;22.37;;;9.37;;
15679;SDS011;15488;48.114;11.532;2022-12-18T05:45:56;19.30;;;8.93;;
15679;SDS011;15488;48.114;11.532;2022-12-18T05:48:23;20.77;;;9.67;;
15679;SDS011;15488;48.114;11.532;2022-12-18T05:50:50;20.40;;;9.17;;
15679;SDS011;15488;48.114;11.532;2022-12-18T05:53:19;21.17;;;9.70;;
15679;SDS011;15488;48.114;11.532;2022-12-18T05:55:47;21.90;;;9.70;;
15679;SDS011;15488;48.114;11.532;2022-12-18T05:58:15;21.87;;;9.30;;
15679;SDS011;15488;48.114;11.532;2022-12-18T06:00:44;20.23;;;9.60;;
15679;SDS011;15488;48.114;11.532;2022-12-18T06:03:13;19.90;;;8.97;;
15679;SDS011;15488;48.114;11.532;2022-12-18T06:05:41;21.10;;;9.57;;
15679;SDS011;15488;48.114;11.532;2022-12-18T06:08:10;19.93;;;8.70;;
15679;SDS011;15488;48.114;11.532;2022-12-18T06:10:38;21.27;;;9.53;;
15679;SDS011;15488;48.114;11.532;2022-12-18T06:13:06;20.73;;;8.93;;
15679;SDS011;15488;48.114;11.532;2022-12-18T06:15:35;16.67;;;8.27;;
15679;SDS011;15488;48.114;11.532;2022-12-18T06:18:04;18.07;;;8.63;;
15679;SDS011;15488;48.114;11.532;2022-12-18T06:20:32;19.07;;;8.73;;
15679;SDS011;15488;48.114;11.532;2022-12-18T06:23:01;20.53;;;8.80;;
15679;SDS011;15488;48.114;11.532;2022-12-18T06:25:29;21.13;;;9.40;;
15679;SDS011;15488;48.114;11.532;2022-12-18T06:27:56;22.67;;;9.60;;
15679;SDS011;15488;48.114;11.532;2022-12-18T06:30:24;21.93;;;9.03;;
15679;SDS011;15488;48.114;11.532;2022-12-18T06:32:51;19.80;;;8.87;;
15679;SDS011;15488;48.114;11.532;2022-12-18T06:35:20;20.27;;;8.87;;
15679;SDS011;15488;48.114;11.532;2022-12-18T06:37:47;19.57;;;8.77;;
15679;SDS011;15488;48.114;11.532;2022-12-18T06:40:15;18.17;;;8.27;;
15679;SDS011;15488;48.114;11.532;2022-12-18T06:42:42;19.60;;;9.00;;
15679;SDS011;15488;48.114;11.532;2022-12-18T06:45:10;16.63;;;8.77;;
15679;SDS011;15488;48.114;11.532;2022-12-18T06:47:40;17.73;;;7.87;;
15679;SDS011;15488;48.114;11.532;2022-12-18T06:50:07;20.03;;;9.30;;
15679;SDS011;15488;48.114;11.532;2022-12-18T06:52:36;20.97;;;8.90;;
15679;SDS011;15488;48.114;11.532;2022-12-18T06:55:05;23.70;;;9.30;;
15679;SDS011;15488;48.114;11.532;2022-12-18T06:57:36;21.73;;;8.90;;
15679;SDS011;15488;48.114;11.532;2022-12-18T07:00:05;22.63;;;9.77;;
15679;SDS011;15488;48.114;11.532;2022-12-18T07:02:33;19.93;;;9.63;;
15679;SDS011;15488;48.114;11.532;2022-12-18T07:05:00;21.37;;;9.73;;
15679;SDS011;15488;48.114;11.532;2022-12-18T07:07:28;19.50;;;8.50;;
15679;SDS011;15488;48.114;11.532;2022-12-18T07:09:57;19.57;;;9.00;;
15679;SDS011;15488;48.114;11.532;2022-12-18T07:12:26;19.83;;;8.63;;
15679;SDS011;15488;48.114;11.532;2022-12-18T07:14:53;21.20;;;8.80;;
15679;SDS011;15488;48.114;11.532;2022-12-18T07:17:20;22.43;;;9.60;;
15679;SDS011;15488;48.114;11.532;2022-12-18T07:19:48;20.67;;;8.37;;
15679;SDS011;15488;48.114;11.532;2022-12-18T07:22:15;20.93;;;9.27;;
15679;SDS011;15488;48.114;11.532;2022-12-18T07:24:43;21.33;;;9.57;;
15679;SDS011;15488;48.114;11.532;2022-12-18T07:27:12;20.23;;;9.40;;
15679;SDS011;15488;48.114;11.532;2022-12-18T07:29:39;21.17;;;8.87;;
15679;SDS011;15488;48.114;11.532;2022-12-18T07:32:06;18.00;;;8.27;;
15679;SDS011;15488;48.114;11.532;2022-12-18T07:34:34;19.80;;;8.90;;
15679;SDS011;15488;48.114;11.532;2022-12-18T07:37:01;19.63;;;9.10;;
15679;SDS011;15488;48.114;11.532;2022-12-18T07:39:29;17.80;;;8.40;;
15679;SDS011;15488;48.114;11.532;2022-12-18T07:41:57;19.50;;;9.07;;
15679;SDS011;15488;48.114;11.532;2022-12-18T07:44:43;20.97;;;9.67;;
15679;SDS011;15488;48.114;11.532;2022-12-18T07:47:11;28.87;;;12.40;;
15679;SDS011;15488;48.114;11.532;2022-12-18T07:49:38;23.20;;;10.10;;
15679;SDS011;15488;48.114;11.532;2022-12-18T07:52:06;19.23;;;8.70;;
15679;SDS011;15488;48.114;11.532;2022-12-18T07:54:34;18.57;;;8.97;;
15679;SDS011;15488;48.114;11.532;2022-12-18T07:57:02;19.80;;;9.07;;
15679;SDS011;15488;48.114;11.532;2022-12-18T07:59:29;21.30;;;8.87;;
15679;SDS011;15488;48.114;11.532;2022-12-18T08:01:58;18.97;;;8.70;;
15679;SDS011;15488;48.114;11.532;2022-12-18T08:04:25;19.17;;;9.43;;
15679;SDS011;15488;48.114;11.532;2022-12-18T08:06:53;20.10;;;9.07;;
15679;SDS011;15488;48.114;11.532;2022-12-18T08:09:20;22.53;;;9.20;;
15679;SDS011;15488;48.114;11.532;2022-12-18T08:11:48;19.37;;;8.67;;
15679;SDS011;15488;48.114;11.532;2022-12-18T08:14:15;17.70;;;8.63;;
15679;SDS011;15488;48.114;11.532;2022-12-18T08:16:43;22.17;;;8.87;;
15679;SDS011;15488;48.114;11.532;2022-12-18T08:19:12;20.63;;;9.30;;
15679;SDS011;15488;48.114;11.532;2022-12-18T08:21:40;17.13;;;8.40;;
15679;SDS011;15488;48.114;11.532;2022-12-18T08:24:08;16.73;;;8.03;;
15679;SDS011;15488;48.114;11.532;2022-12-18T08:26:36;20.50;;;8.53;;
15679;SDS011;15488;48.114;11.532;2022-12-18T08:29:04;18.30;;;8.57;;
15679;SDS011;15488;48.114;11.532;2022-12-18T08:31:31;17.27;;;8.50;;
15679;SDS011;15488;48.114;11.532;2022-12-18T08:33:59;20.73;;;9.03;;
15679;SDS011;15488;48.114;11.532;2022-12-18T08:36:28;17.27;;;8.10;;
15679;SDS011;15488;48.114;11.532;2022-12-18T08:38:56;22.80;;;9.30;;
15679;SDS011;15488;48.114;11.532;2022-12-18T08:41:23;21.57;;;9.50;;
15679;SDS011;15488;48.114;11.532;2022-12-18T08:43:51;21.57;;;9.30;;
15679;SDS011;15488;48.114;11.532;2022-12-18T08:46:36;19.23;;;8.37;;
15679;SDS011;15488;48.114;11.532;2022-12-18T08:49:05;17.87;;;8.40;;
15679;SDS011;15488;48.114;11.532;2022-12-18T08:51:34;18.97;;;8.67;;
15679;SDS011;15488;48.114;11.532;2022-12-18T08:54:03;18.90;;;8.33;;
15679;SDS011;15488;48.114;11.532;2022-12-18T08:56:31;18.27;;;8.37;;
15679;SDS011;15488;48.114;11.532;2022-12-18T08:58:59;17.87;;;8.30;;
15679;SDS011;15488;48.114;11.532;2022-12-18T09:01:26;19.67;;;9.07;;
15679;SDS011;15488;48.114;11.532;2022-12-18T09:03:53;16.77;;;8.03;;
15679;SDS011;15488;48.114;11.532;2022-12-18T09:06:22;15.83;;;8.30;;
15679;SDS011;15488;48.114;11.532;2022-12-18T09:08:52;15.23;;;7.43;;
15679;SDS011;15488;48.114;11.532;2022-12-18T09:11:20;16.50;;;8.10;;
15679;SDS011;15488;48.114;11.532;2022-12-18T09:13:49;15.40;;;7.73;;
15679;SDS011;15488;48.114;11.532;2022-12-18T09:16:17;19.93;;;8.20;;
15679;SDS011;15488;48.114;11.532;2022-12-18T09:18:45;18.40;;;7.70;;
15679;SDS011;15488;48.114;11.532;2022-12-18T09:21:14;18.57;;;8.63;;
15679;SDS011;15488;48.114;11.532;2022-12-18T09:23:42;17.20;;;8.60;;
15679;SDS011;15488;48.114;11.532;2022-12-18T09:26:11;19.43;;;8.43;;
15679;SDS011;15488;48.114;11.532;2022-12-18T09:28:38;17.03;;;8.17;;
15679;SDS011;15488;48.114;11.532;2022-12-18T09:31:07;17.70;;;7.93;;
15679;SDS011;15488;48.114;11.532;2022-12-18T09:33:35;17.03;;;7.77;;
15679;SDS011;15488;48.114;11.532;2022-12-18T09:36:05;15.50;;;7.50;;
15679;SDS011;15488;48.114;11.532;2022-12-18T09:38:34;16.70;;;7.53;;
15679;SDS011;15488;48.114;11.532;2022-12-18T09:41:03;16.17;;;8.03;;
15679;SDS011;15488;48.114;11.532;2022-12-18T09:43:43;17.33;;;7.40;;
15679;SDS011;15488;48.114;11.532;2022-12-18T09:46:15;18.67;;;8.83;;
15679;SDS011;15488;48.114;11.532;2022-12-18T09:48:48;17.10;;;8.27;;
15679;SDS011;15488;48.114;11.532;2022-12-18T09:51:19;20.50;;;8.13;;
15679;SDS011;15488;48.114;11.532;2022-12-18T09:53:50;19.17;;;8.63;;
15679;SDS011;15488;48.114;11.532;2022-12-18T09:56:21;20.23;;;8.97;;
15679;SDS011;15488;48.114;11.532;2022-12-18T09:58:55;16.77;;;8.20;;
15679;SDS011;15488;48.114;11.532;2022-12-18T10:01:25;16.50;;;7.37;;
15679;SDS011;15488;48.114;11.532;2022-12-18T10:03:54;16.13;;;7.77;;
15679;SDS011;15488;48.114;11.532;2022-12-18T10:06:23;18.83;;;8.23;;
15679;SDS011;15488;48.114;11.532;2022-12-18T10:08:58;17.80;;;8.33;;
15679;SDS011;15488;48.114;11.532;2022-12-18T10:11:34;20.97;;;9.83;;
15679;SDS011;15488;48.114;11.532;2022-12-18T10:14:13;18.37;;;8.63;;
15679;SDS011;15488;48.114;11.532;2022-12-18T10:16:49;16.97;;;7.40;;
15679;SDS011;15488;48.114;11.532;2022-12-18T10:19:27;15.73;;;8.00;;
15679;SDS011;15488;48.114;11.532;2022-12-18T10:22:09;15.83;;;7.50;;
15679;SDS011;15488;48.114;11.532;2022-12-18T10:24:46;16.20;;;8.67;;
15679;SDS011;15488;48.114;11.532;2022-12-18T10:27:21;17.27;;;7.97;;
15679;SDS011;15488;48.114;11.532;2022-12-18T10:29:52;17.13;;;8.00;;
15679;SDS011;15488;48.114;11.532;2022-12-18T10:32:21;17.40;;;8.43;;
15679;SDS011;15488;48.114;11.532;2022-12-18T10:34:52;16.40;;;8.10;;
15679;SDS011;15488;48.114;11.532;2022-12-18T10:37:21;17.60;;;8.13;;
15679;SDS011;15488;48.114;11.532;2022-12-18T10:40:04;16.40;;;8.07;;
15679;SDS011;15488;48.114;11.532;2022-12-18T10:42:35;16.17;;;7.90;;
15679;SDS011;15488;48.114;11.532;2022-12-18T10:45:05;16.63;;;7.93;;
15679;SDS011;15488;48.114;11.532;2022-12-18T10:47:37;15.97;;;7.67;;
15679;SDS011;15488;48.114;11.532;2022-12-18T10:50:16;14.33;;;7.80;;
15679;SDS011;15488;48.114;11.532;2022-12-18T10:52:55;15.83;;;7.83;;
15679;SDS011;15488;48.114;11.532;2022-12-18T10:55:25;20.43;;;9.27;;
15679;SDS011;15488;48.114;11.532;2022-12-18T10:58:02;24.10;;;11.57;;
15679;SDS011;15488;48.114;11.532;2022-12-18T11:00:44;22.30;;;10.20;;
15679;SDS011;15488;48.114;11.532;2022-12-18T11:03:29;18.37;;;8.10;;
15679;SDS011;15488;48.114;11.532;2022-12-18T11:06:04;17.57;;;8.10;;
15679;SDS011;15488;48.114;11.532;2022-12-18T11:08:34;18.53;;;8.23;;
15679;SDS011;15488;48.114;11.532;2022-12-18T11:11:01;17.87;;;8.73;;
15679;SDS011;15488;48.114;11.532;2022-12-18T11:13:30;19.43;;;9.00;;
15679;SDS011;15488;48.114;11.532;2022-12-18T11:16:00;18.23;;;8.60;;
15679;SDS011;15488;48.114;11.532;2022-12-18T11:18:28;15.47;;;7.90;;
15679;SDS011;15488;48.114;11.532;2022-12-18T11:20:59;16.77;;;8.37;;
15679;SDS011;15488;48.114;11.532;2022-12-18T11:23:32;17.53;;;7.63;;
15679;SDS011;15488;48.114;11.532;2022-12-18T11:26:02;17.60;;;8.00;;
15679;SDS011;15488;48.114;11.532;2022-12-18T11:28:35;20.53;;;8.53;;
15679;SDS011;15488;48.114;11.532;2022-12-18T11:31:11;16.93;;;8.07;;
15679;SDS011;15488;48.114;11.532;2022-12-18T11:33:52;14.10;;;7.17;;
15679;SDS011;15488;48.114;11.532;2022-12-18T11:36:25;14.10;;;7.27;;
15679;SDS011;15488;48.114;11.532;2022-12-18T11:38:57;15.60;;;7.77;;
15679;SDS011;15488;48.114;11.532;2022-12-18T11:41:32;17.13;;;7.73;;
15679;SDS011;15488;48.114;11.532;2022-12-18T11:44:21;17.00;;;8.03;;
15679;SDS011;15488;48.114;11.532;2022-12-18T11:46:55;20.13;;;8.87;;
15679;SDS011;15488;48.114;11.532;2022-12-18T11:49:28;18.80;;;9.43;;
15679;SDS011;15488;48.114;11.532;2022-12-18T11:52:01;16.40;;;8.30;;
15679;SDS011;15488;48.114;11.532;2022-12-18T11:54:31;18.90;;;8.13;;
15679;SDS011;15488;48.114;11.532;2022-12-18T11:57:01;15.10;;;7.77;;
15679;SDS011;15488;48.114;11.532;2022-12-18T11:59:36;16.37;;;8.70;;
15679;SDS011;15488;48.114;11.532;2022-12-18T12:02:14;20.67;;;8.97;;
15679;SDS011;15488;48.114;11.532;2022-12-18T12:05:01;16.27;;;8.20;;
15679;SDS011;15488;48.114;11.532;2022-12-18T12:07:46;13.87;;;7.40;;
15679;SDS011;15488;48.114;11.532;2022-12-18T12:10:26;14.43;;;6.77;;
15679;SDS011;15488;48.114;11.532;2022-12-18T12:13:10;13.73;;;6.93;;
15679;SDS011;15488;48.114;11.532;2022-12-18T12:15:57;12.83;;;6.60;;
15679;SDS011;15488;48.114;11.532;2022-12-18T12:18:41;14.70;;;7.33;;
15679;SDS011;15488;48.114;11.532;2022-12-18T12:21:20;15.17;;;7.17;;
15679;SDS011;15488;48.114;11.532;2022-12-18T12:23:56;14.13;;;7.43;;
15679;SDS011;15488;48.114;11.532;2022-12-18T12:26:35;15.50;;;7.93;;
15679;SDS011;15488;48.114;11.532;2022-12-18T12:29:17;17.33;;;8.23;;
15679;SDS011;15488;48.114;11.532;2022-12-18T12:31:59;16.00;;;7.80;;
15679;SDS011;15488;48.114;11.532;2022-12-18T12:34:42;15.73;;;7.20;;
15679;SDS011;15488;48.114;11.532;2022-12-18T12:37:19;15.50;;;7.37;;
15679;SDS011;15488;48.114;11.532;2022-12-18T12:39:56;16.50;;;7.63;;
15679;SDS011;15488;48.114;11.532;2022-12-18T12:42:26;14.30;;;7.20;;
15679;SDS011;15488;48.114;11.532;2022-12-18T12:45:18;19.30;;;9.03;;
15679;SDS011;15488;48.114;11.532;2022-12-18T12:47:48;16.60;;;8.53;;
15679;SDS011;15488;48.114;11.532;2022-12-18T12:50:19;18.37;;;9.27;;
15679;SDS011;15488;48.114;11.532;2022-12-18T12:52:49;19.13;;;8.67;;
15679;SDS011;15488;48.114;11.532;2022-12-18T12:55:19;28.50;;;12.97;;
15679;SDS011;15488;48.114;11.532;2022-12-18T12:57:52;23.97;;;10.77;;
15679;SDS011;15488;48.114;11.532;2022-12-18T13:00:27;17.23;;;7.80;;
15679;SDS011;15488;48.114;11.532;2022-12-18T13:03:04;14.97;;;7.47;;
15679;SDS011;15488;48.114;11.532;2022-12-18T13:05:43;13.50;;;7.33;;
15679;SDS011;15488;48.114;11.532;2022-12-18T13:08:22;14.77;;;7.43;;
15679;SDS011;15488;48.114;11.532;2022-12-18T13:10:52;17.53;;;7.47;;
15679;SDS011;15488;48.114;11.532;2022-12-18T13:13:47;20.90;;;10.23;;
15679;SDS011;15488;48.114;11.532;2022-12-18T13:16:17;22.17;;;10.33;;
15679;SDS011;15488;48.114;11.532;2022-12-18T13:18:49;16.97;;;8.83;;
15679;SDS011;15488;48.114;11.532;2022-12-18T13:21:20;16.83;;;7.80;;
15679;SDS011;15488;48.114;11.532;2022-12-18T13:23:50;15.90;;;7.73;;
15679;SDS011;15488;48.114;11.532;2022-12-18T13:26:28;15.33;;;7.10;;
15679;SDS011;15488;48.114;11.532;2022-12-18T13:28:58;14.13;;;7.20;;
15679;SDS011;15488;48.114;11.532;2022-12-18T13:34:34;14.17;;;7.30;;
15679;SDS011;15488;48.114;11.532;2022-12-18T13:43:26;15.90;;;7.43;;
15679;SDS011;15488;48.114;11.532;2022-12-18T13:45:59;14.00;;;6.97;;
15679;SDS011;15488;48.114;11.532;2022-12-18T13:48:30;15.30;;;7.13;;
15679;SDS011;15488;48.114;11.532;2022-12-18T13:51:00;12.87;;;6.90;;
15679;SDS011;15488;48.114;11.532;2022-12-18T13:53:32;18.03;;;8.87;;
15679;SDS011;15488;48.114;11.532;2022-12-18T13:56:03;16.87;;;8.37;;
15679;SDS011;15488;48.114;11.532;2022-12-18T13:58:31;17.80;;;8.50;;
15679;SDS011;15488;48.114;11.532;2022-12-18T14:00:59;14.63;;;7.13;;
15679;SDS011;15488;48.114;11.532;2022-12-18T14:03:29;15.80;;;7.27;;
15679;SDS011;15488;48.114;11.532;2022-12-18T14:06:01;18.57;;;7.97;;
15679;SDS011;15488;48.114;11.532;2022-12-18T14:08:35;13.73;;;6.97;;
15679;SDS011;15488;48.114;11.532;2022-12-18T14:11:05;15.37;;;6.77;;
15679;SDS011;15488;48.114;11.532;2022-12-18T14:13:34;14.63;;;7.43;;
15679;SDS011;15488;48.114;11.532;2022-12-18T14:16:06;15.73;;;7.60;;
15679;SDS011;15488;48.114;11.532;2022-12-18T14:18:41;17.47;;;8.03;;
15679;SDS011;15488;48.114;11.532;2022-12-18T14:21:18;15.43;;;7.70;;
15679;SDS011;15488;48.114;11.532;2022-12-18T14:23:49;17.43;;;7.90;;
15679;SDS011;15488;48.114;11.532;2022-12-18T14:26:31;14.47;;;6.87;;
15679;SDS011;15488;48.114;11.532;2022-12-18T14:29:00;15.00;;;6.80;;
15679;SDS011;15488;48.114;11.532;2022-12-18T14:31:44;15.60;;;7.53;;
15679;SDS011;15488;48.114;11.532;2022-12-18T14:34:14;15.77;;;7.87;;
15679;SDS011;15488;48.114;11.532;2022-12-18T14:36:44;16.77;;;7.40;;
15679;SDS011;15488;48.114;11.532;2022-12-18T14:39:20;16.80;;;7.13;;
15679;SDS011;15488;48.114;11.532;2022-12-18T14:41:48;20.90;;;8.70;;
15679;SDS011;15488;48.114;11.532;2022-12-18T14:44:16;18.57;;;8.10;;
15679;SDS011;15488;48.114;11.532;2022-12-18T14:46:44;16.93;;;7.60;;
15679;SDS011;15488;48.114;11.532;2022-12-18T14:49:18;16.63;;;7.80;;